createdAt,value
2022-09-12T00:01:06.018Z,11.98
2022-09-12T00:04:08.854Z,16.52
2022-09-12T00:07:12.999Z,9.30
2022-09-12T00:10:15.752Z,15.52
2022-09-12T00:13:18.418Z,14.05
2022-09-12T00:16:23.129Z,14.18
2022-09-12T00:19:26.160Z,13.20
2022-09-12T00:22:30.247Z,11.85
2022-09-12T00:25:32.924Z,12.73
2022-09-12T00:28:36.392Z,14.27
2022-09-12T00:31:39.328Z,13.77
2022-09-12T00:34:42.054Z,13.73
2022-09-12T00:37:46.697Z,14.35
2022-09-12T00:40:49.502Z,13.70
2022-09-12T00:43:53.121Z,14.77
2022-09-12T00:46:58.227Z,14.43
2022-09-12T00:50:03.389Z,14.82
2022-09-12T00:53:07.940Z,13.95
2022-09-12T00:56:11.285Z,15.30
2022-09-12T00:59:15.959Z,13.93
2022-09-12T01:02:18.651Z,14.43
2022-09-12T01:05:21.293Z,14.65
2022-09-12T01:08:25.304Z,13.40
2022-09-12T01:11:27.960Z,13.57
2022-09-12T01:14:30.844Z,14.40
2022-09-12T01:17:38.675Z,17.10
2022-09-12T01:20:49.384Z,15.82
2022-09-12T01:24:21.581Z,16.05
2022-09-12T01:27:34.992Z,16.77
2022-09-12T01:30:47.092Z,16.02
2022-09-12T01:33:57.287Z,14.15
2022-09-12T01:37:01.554Z,16.92
2022-09-12T01:40:05.669Z,13.15
2022-09-12T01:43:11.309Z,16.73
2022-09-12T01:46:17.323Z,16.15
2022-09-12T01:49:22.762Z,14.50
2022-09-12T01:52:27.098Z,15.30
2022-09-12T01:55:31.155Z,16.15
2022-09-12T01:58:36.527Z,14.82
2022-09-12T02:01:41.999Z,15.18
2022-09-12T02:04:47.823Z,12.73
2022-09-12T02:07:52.871Z,15.07
2022-09-12T02:10:57.436Z,12.73
2022-09-12T02:14:02.127Z,14.35
2022-09-12T02:17:08.756Z,13.18
2022-09-12T02:20:21.355Z,13.73
2022-09-12T02:23:39.379Z,16.20
2022-09-12T02:26:44.787Z,16.02
2022-09-12T02:29:47.366Z,14.80
2022-09-12T02:32:58.250Z,14.00
2022-09-12T02:36:04.922Z,15.18
2022-09-12T02:39:07.579Z,18.70
2022-09-12T02:42:10.267Z,16.80
2022-09-12T02:45:13.647Z,18.52
2022-09-12T02:48:19.572Z,18.13
2022-09-12T02:51:23.741Z,18.00
2022-09-12T02:54:26.621Z,15.70
2022-09-12T02:57:29.282Z,19.13
2022-09-12T03:00:32.612Z,17.95
2022-09-12T03:03:48.140Z,16.05
2022-09-12T03:06:52.789Z,17.83
2022-09-12T03:09:58.940Z,14.48
2022-09-12T03:13:06.682Z,18.40
2022-09-12T03:16:12.974Z,16.48
2022-09-12T03:19:20.284Z,16.33
2022-09-12T03:25:28.250Z,18.40
2022-09-12T03:28:30.929Z,21.10
2022-09-12T03:31:33.545Z,18.60
2022-09-12T03:34:37.646Z,21.40
2022-09-12T03:37:40.302Z,22.48
2022-09-12T03:40:43.368Z,19.17
2022-09-12T03:43:46.110Z,21.00
2022-09-12T03:46:49.501Z,18.13
2022-09-12T03:49:53.547Z,22.13
2022-09-12T03:52:56.231Z,19.92
2022-09-12T03:55:58.882Z,21.50
2022-09-12T03:59:01.542Z,20.75
2022-09-12T04:02:04.609Z,21.35
2022-09-12T04:05:09.341Z,22.77
2022-09-12T04:08:11.984Z,27.38
2022-09-12T04:11:15.991Z,18.88
2022-09-12T04:14:18.832Z,26.70
2022-09-12T04:17:21.474Z,23.60
2022-09-12T04:20:25.515Z,22.63
2022-09-12T04:23:28.222Z,21.90
2022-09-12T04:26:31.727Z,22.60
2022-09-12T04:29:35.625Z,24.17
2022-09-12T04:32:38.337Z,23.83
2022-09-12T04:35:42.980Z,22.52
2022-09-12T04:38:46.224Z,27.58
2022-09-12T04:41:48.959Z,24.00
2022-09-12T04:44:52.027Z,25.77
2022-09-12T04:47:54.684Z,20.85
2022-09-12T04:51:06.989Z,17.80
2022-09-12T04:54:11.817Z,21.45
2022-09-12T04:57:14.446Z,21.15
2022-09-12T05:00:17.505Z,19.70
2022-09-12T05:03:20.138Z,23.35
2022-09-12T05:06:25.421Z,19.60
2022-09-12T05:09:29.129Z,23.15
2022-09-12T05:12:32.071Z,21.70
2022-09-12T05:15:34.735Z,24.10
2022-09-12T05:18:37.485Z,18.17
2022-09-12T05:21:41.512Z,18.80
2022-09-12T05:24:49.849Z,20.83
2022-09-12T05:27:53.669Z,19.40
2022-09-12T05:31:01.647Z,21.45
2022-09-12T05:34:06.977Z,21.83
2022-09-12T05:37:10.975Z,20.10
2022-09-12T05:40:17.678Z,23.13
2022-09-12T05:43:21.279Z,23.58
2022-09-12T05:46:25.225Z,22.52
2022-09-12T05:49:27.938Z,23.75
2022-09-12T05:52:32.973Z,23.23
2022-09-12T05:55:36.089Z,20.52
2022-09-12T05:58:39.826Z,23.88
2022-09-12T06:01:42.773Z,22.90
2022-09-12T06:04:45.792Z,28.05
2022-09-12T06:07:49.876Z,25.70
2022-09-12T06:10:52.601Z,25.65
2022-09-12T06:13:56.273Z,23.13
2022-09-12T06:16:58.980Z,24.70
2022-09-12T06:20:01.875Z,28.27
2022-09-12T06:23:05.950Z,20.55
2022-09-12T06:26:09.350Z,23.00
2022-09-12T06:29:13.341Z,24.95
2022-09-12T06:32:16.531Z,23.45
2022-09-12T06:35:19.229Z,25.05
2022-09-12T06:38:23.336Z,25.58
2022-09-12T06:41:26.848Z,26.13
2022-09-12T06:44:29.729Z,24.50
2022-09-12T06:47:32.956Z,24.73
2022-09-12T06:50:35.562Z,26.75
2022-09-12T06:53:39.693Z,29.85
2022-09-12T06:56:42.405Z,30.02
2022-09-12T06:59:45.009Z,29.13
2022-09-12T07:02:47.661Z,31.00
2022-09-12T07:05:50.291Z,30.77
2022-09-12T07:08:54.359Z,28.85
2022-09-12T07:11:56.961Z,32.30
2022-09-12T07:14:59.606Z,34.08
2022-09-12T07:18:02.304Z,30.17
2022-09-12T07:21:05.440Z,32.80
2022-09-12T07:24:10.243Z,26.95
2022-09-12T07:27:13.144Z,32.25
2022-09-12T07:30:16.236Z,28.75
2022-09-12T07:33:21.021Z,34.80
2022-09-12T07:36:25.340Z,28.42
2022-09-12T07:39:29.499Z,29.20
2022-09-12T07:42:32.243Z,27.15
2022-09-12T07:45:34.924Z,30.90
2022-09-12T07:48:37.933Z,31.67
2022-09-12T07:51:41.128Z,27.23
2022-09-12T07:54:45.326Z,26.52
2022-09-12T07:57:50.225Z,25.67
2022-09-12T08:00:52.999Z,28.50
2022-09-12T08:03:57.176Z,25.83
2022-09-12T08:06:59.775Z,27.38
2022-09-12T08:10:03.749Z,25.45
2022-09-12T08:13:08.759Z,26.33
2022-09-12T08:16:13.567Z,23.27
2022-09-12T08:19:16.182Z,18.20
2022-09-12T08:22:22.018Z,16.40
2022-09-12T08:25:26.712Z,17.42
2022-09-12T08:28:29.337Z,17.50
2022-09-12T08:31:36.318Z,17.08
2022-09-12T08:37:41.344Z,13.38
2022-09-12T08:40:49.534Z,16.17
2022-09-12T08:44:05.108Z,13.73
2022-09-12T08:47:26.886Z,11.13
2022-09-12T08:50:29.490Z,10.27
2022-09-12T08:53:32.103Z,13.63
2022-09-12T08:56:37.699Z,11.07
2022-09-12T08:59:42.304Z,11.25
2022-09-12T09:03:18.749Z,11.63
2022-09-12T09:06:27.624Z,8.98
2022-09-12T09:09:37.186Z,10.65
2022-09-12T09:12:45.700Z,9.07
2022-09-12T09:15:49.998Z,8.95
2022-09-12T09:18:52.679Z,11.60
2022-09-12T09:21:57.429Z,7.18
2022-09-12T09:25:02.324Z,10.68
2022-09-12T09:28:08.119Z,6.35
2022-09-12T09:31:15.052Z,6.32
2022-09-12T09:37:25.354Z,5.38
2022-09-12T09:40:30.130Z,7.28
2022-09-12T09:43:34.115Z,6.28
2022-09-12T09:46:38.879Z,5.43
2022-09-12T09:49:41.503Z,4.63
2022-09-12T09:52:44.192Z,5.28
2022-09-12T09:55:46.754Z,8.95
2022-09-12T09:58:50.690Z,4.63
2022-09-12T10:01:54.744Z,4.20
2022-09-12T10:04:58.306Z,3.38
2022-09-12T10:08:00.861Z,2.78
2022-09-12T10:11:04.306Z,6.15
2022-09-12T10:14:24.559Z,8.32
2022-09-12T10:17:33.889Z,4.15
2022-09-12T10:20:39.983Z,4.50
2022-09-12T10:23:42.597Z,4.95
2022-09-12T10:26:45.322Z,4.63
2022-09-12T10:29:50.427Z,6.60
2022-09-12T10:32:54.085Z,6.82
2022-09-12T10:35:56.963Z,4.75
2022-09-12T10:39:00.612Z,6.00
2022-09-12T10:42:03.428Z,7.57
2022-09-12T10:45:21.115Z,6.22
2022-09-12T10:48:26.431Z,3.83
2022-09-12T10:51:29.416Z,5.25
2022-09-12T10:54:31.968Z,4.72
2022-09-12T10:57:47.797Z,9.98
2022-09-12T11:00:53.845Z,11.50
2022-09-12T11:04:06.483Z,9.77
2022-09-12T11:07:19.589Z,6.68
2022-09-12T11:10:27.866Z,4.85
2022-09-12T11:13:40.075Z,4.40
2022-09-12T11:16:45.768Z,9.73
2022-09-12T11:20:23.436Z,5.28
2022-09-12T11:24:02.523Z,3.42
2022-09-12T11:27:14.104Z,3.83
2022-09-12T11:30:17.791Z,2.83
2022-09-12T11:33:27.912Z,2.13
2022-09-12T11:36:34.203Z,3.20
2022-09-12T11:39:38.823Z,2.72
2022-09-12T11:42:41.442Z,3.55
2022-09-12T11:45:45.190Z,2.50
2022-09-12T11:48:52.898Z,3.47
2022-09-12T11:51:57.572Z,2.83
2022-09-12T11:55:03.812Z,2.38
2022-09-12T11:58:08.572Z,3.85
2022-09-12T12:01:13.853Z,1.48
2022-09-12T12:04:19.554Z,2.38
2022-09-12T12:07:22.284Z,2.65
2022-09-12T12:10:27.503Z,4.93
2022-09-12T12:13:32.366Z,3.80
2022-09-12T12:16:35.785Z,4.28
2022-09-12T12:19:39.946Z,1.85
2022-09-12T12:22:48.500Z,2.45
2022-09-12T12:25:54.497Z,2.78
2022-09-12T12:29:01.237Z,4.57
2022-09-12T12:32:27.582Z,3.13
2022-09-12T12:35:41.617Z,4.80
2022-09-12T12:38:44.443Z,4.10
2022-09-12T12:41:47.357Z,2.35
2022-09-12T12:44:51.455Z,3.42
2022-09-12T12:47:54.694Z,2.95
2022-09-12T12:51:24.603Z,2.80
2022-09-12T12:54:55.754Z,2.60
2022-09-12T12:57:58.560Z,2.83
2022-09-12T13:01:11.081Z,1.85
2022-09-12T13:04:15.098Z,2.22
2022-09-12T13:07:26.152Z,3.97
2022-09-12T13:10:29.820Z,2.17
2022-09-12T13:13:33.848Z,2.38
2022-09-12T13:16:37.600Z,1.73
2022-09-12T13:19:40.382Z,1.90
2022-09-12T13:22:45.301Z,2.85
2022-09-12T13:25:47.998Z,2.42
2022-09-12T13:28:51.504Z,1.75
2022-09-12T13:31:55.214Z,3.72
2022-09-12T13:35:04.549Z,2.70
2022-09-12T13:38:09.880Z,4.68
2022-09-12T13:41:23.221Z,3.42
2022-09-12T13:44:26.436Z,3.55
2022-09-12T13:47:31.817Z,4.47
2022-09-12T13:50:38.748Z,2.20
2022-09-12T13:53:44.471Z,2.78
2022-09-12T13:56:51.011Z,6.22
2022-09-12T13:59:56.361Z,2.80
2022-09-12T14:03:12.991Z,3.28
2022-09-12T14:06:16.581Z,4.18
2022-09-12T14:09:25.252Z,6.72
2022-09-12T14:12:30.229Z,5.47
2022-09-12T14:15:33.895Z,6.85
2022-09-12T14:18:38.953Z,4.57
2022-09-12T14:21:41.615Z,3.00
2022-09-12T14:24:51.720Z,3.13
2022-09-12T14:27:55.247Z,4.13
2022-09-12T14:30:59.466Z,2.95
2022-09-12T14:34:12.898Z,3.42
2022-09-12T14:37:15.542Z,5.03
2022-09-12T14:40:21.263Z,3.35
2022-09-12T14:43:26.242Z,3.85
2022-09-12T14:46:31.587Z,7.53
2022-09-12T14:49:35.452Z,5.53
2022-09-12T14:52:39.052Z,5.78
2022-09-12T14:55:46.060Z,1.65
2022-09-12T14:58:48.894Z,4.30
2022-09-12T15:01:51.517Z,5.55
2022-09-12T15:04:55.214Z,6.55
2022-09-12T15:08:01.376Z,4.38
2022-09-12T15:11:07.295Z,5.47
2022-09-12T15:14:12.715Z,5.47
2022-09-12T15:17:15.317Z,7.05
2022-09-12T15:20:18.029Z,7.38
2022-09-12T15:23:26.920Z,9.05
2022-09-12T15:26:31.627Z,5.78
2022-09-12T15:29:34.353Z,4.38
2022-09-12T15:32:36.932Z,8.13
2022-09-12T15:35:39.602Z,7.28
2022-09-12T15:38:42.188Z,3.70
2022-09-12T15:41:47.300Z,4.90
2022-09-12T15:44:49.936Z,3.58
2022-09-12T15:47:52.588Z,7.47
2022-09-12T15:50:57.584Z,4.93
2022-09-12T15:54:00.230Z,3.20
2022-09-12T15:57:04.165Z,3.60
2022-09-12T16:00:08.192Z,6.07
2022-09-12T16:03:17.942Z,4.70
2022-09-12T16:06:20.543Z,4.68
2022-09-12T16:09:24.607Z,3.90
2022-09-12T16:12:28.620Z,6.18
2022-09-12T16:15:31.293Z,10.05
2022-09-12T16:18:33.913Z,6.38
2022-09-12T16:21:36.591Z,4.72
2022-09-12T16:24:39.303Z,5.47
2022-09-12T16:27:43.367Z,6.90
2022-09-12T16:30:46.345Z,4.18
2022-09-12T16:33:49.017Z,3.65
2022-09-12T16:36:51.680Z,4.20
2022-09-12T16:39:54.345Z,5.88
2022-09-12T16:42:58.368Z,5.80
2022-09-12T16:46:04.478Z,10.18
2022-09-12T16:49:07.234Z,9.35
2022-09-12T16:52:12.437Z,6.28
2022-09-12T16:55:15.451Z,4.72
2022-09-12T16:58:19.605Z,5.70
2022-09-12T17:01:23.408Z,7.22
2022-09-12T17:04:26.280Z,4.30
2022-09-12T17:07:29.096Z,4.55
2022-09-12T17:10:32.712Z,11.02
2022-09-12T17:14:02.582Z,6.07
2022-09-12T17:16:59.617Z,3.80
2022-09-12T17:20:02.635Z,5.55
2022-09-12T17:23:09.694Z,5.43
2022-09-12T17:26:12.921Z,11.40
2022-09-12T17:29:17.169Z,4.18
2022-09-12T17:32:19.956Z,5.18
2022-09-12T17:35:23.130Z,7.30
2022-09-12T17:38:26.054Z,5.07
2022-09-12T17:41:29.538Z,3.53
2022-09-12T17:44:35.912Z,4.57
2022-09-12T17:47:38.653Z,3.33
2022-09-12T17:50:41.542Z,4.65
2022-09-12T17:53:44.388Z,8.27
2022-09-12T17:56:49.008Z,4.15
2022-09-12T17:59:53.297Z,13.52
2022-09-12T18:02:55.140Z,10.25
2022-09-12T18:05:58.060Z,6.03
2022-09-12T18:09:01.269Z,7.53
2022-09-12T18:12:04.148Z,4.95
2022-09-12T18:15:09.932Z,4.90
2022-09-12T18:18:12.862Z,7.27
2022-09-12T18:21:15.652Z,5.18
2022-09-12T18:24:18.959Z,4.72
2022-09-12T18:27:21.731Z,10.13
2022-09-12T18:30:25.969Z,4.30
2022-09-12T18:33:28.750Z,5.55
2022-09-12T18:36:31.551Z,6.93
2022-09-12T18:39:34.164Z,9.27
2022-09-12T18:42:36.741Z,6.10
2022-09-12T18:45:40.805Z,6.18
2022-09-12T18:48:44.181Z,3.58
2022-09-12T18:51:46.784Z,7.53
2022-09-12T18:54:49.514Z,5.32
2022-09-12T18:57:52.158Z,6.82
2022-09-12T19:00:56.183Z,7.57
2022-09-12T19:03:58.968Z,3.47
2022-09-12T19:07:02.180Z,7.15
2022-09-12T19:10:05.092Z,5.38
2022-09-12T19:13:07.684Z,8.15
2022-09-12T19:16:13.259Z,5.50
2022-09-12T19:19:16.061Z,6.20
2022-09-12T19:22:18.924Z,6.57
2022-09-12T19:25:21.681Z,7.82
2022-09-12T19:28:24.347Z,7.40
2022-09-12T19:31:28.300Z,6.70
2022-09-12T19:34:30.887Z,7.80
2022-09-12T19:37:33.459Z,5.70
2022-09-12T19:40:37.838Z,5.15
2022-09-12T19:43:42.598Z,9.38
2022-09-12T19:46:46.616Z,6.22
2022-09-12T19:49:49.287Z,6.05
2022-09-12T19:52:51.810Z,4.80
2022-09-12T19:55:54.384Z,7.50
2022-09-12T19:58:57.091Z,4.88
2022-09-12T20:02:01.120Z,5.05
2022-09-12T20:05:03.925Z,7.38
2022-09-12T20:08:07.161Z,4.88
2022-09-12T20:11:09.843Z,9.25
2022-09-12T20:14:12.446Z,10.18
2022-09-12T20:17:16.457Z,4.82
2022-09-12T20:20:19.021Z,6.60
2022-09-12T20:23:21.662Z,4.95
2022-09-12T20:26:24.924Z,6.57
2022-09-12T20:29:27.580Z,9.85
2022-09-12T20:32:31.541Z,11.93
2022-09-12T20:35:34.115Z,9.35
2022-09-12T20:38:36.976Z,7.22
2022-09-12T20:41:39.570Z,7.50
2022-09-12T20:44:42.103Z,4.60
2022-09-12T20:47:45.988Z,5.65
2022-09-12T20:50:48.580Z,7.68
2022-09-12T20:53:53.832Z,11.18
2022-09-12T20:56:56.393Z,10.90
2022-09-12T20:59:58.991Z,8.02
2022-09-12T21:03:02.896Z,4.18
2022-09-12T21:06:06.326Z,7.50
2022-09-12T21:09:08.971Z,5.28
2022-09-12T21:12:11.551Z,3.72
2022-09-12T21:15:14.083Z,5.82
2022-09-12T21:18:18.040Z,4.95
2022-09-12T21:21:20.874Z,5.82
2022-09-12T21:24:23.538Z,5.63
2022-09-12T21:27:26.121Z,5.57
2022-09-12T21:30:29.732Z,6.30
2022-09-12T21:33:33.642Z,6.30
2022-09-12T21:36:36.203Z,5.00
2022-09-12T21:39:38.834Z,5.28
2022-09-12T21:42:41.439Z,6.45
2022-09-12T21:45:43.973Z,5.75
2022-09-12T21:48:47.914Z,10.75
2022-09-12T21:51:51.332Z,6.05
2022-09-12T21:54:53.879Z,6.78
2022-09-12T21:57:56.471Z,6.40
2022-09-12T22:01:00.284Z,4.68
2022-09-12T22:04:04.567Z,4.68
2022-09-12T22:07:07.377Z,6.75
2022-09-12T22:10:10.571Z,7.13
2022-09-12T22:13:13.087Z,8.90
2022-09-12T22:16:15.721Z,7.53
2022-09-12T22:19:19.778Z,5.95
2022-09-12T22:22:39.977Z,5.32
2022-09-12T22:25:42.527Z,7.82
2022-09-12T22:28:45.169Z,7.20
2022-09-12T22:31:47.756Z,9.07
2022-09-12T22:34:51.704Z,8.20
2022-09-12T22:37:54.302Z,8.27
2022-09-12T22:40:58.494Z,11.63
2022-09-12T22:44:01.049Z,10.02
2022-09-12T22:47:03.700Z,7.20
2022-09-12T22:50:08.841Z,6.55
2022-09-12T22:53:11.485Z,8.60
2022-09-12T22:56:14.034Z,8.80
2022-09-12T22:59:16.755Z,10.35
2022-09-12T23:02:19.301Z,6.35
2022-09-12T23:05:23.312Z,5.97
2022-09-12T23:08:29.361Z,10.88
2022-09-12T23:11:31.933Z,5.40
2022-09-12T23:14:34.559Z,5.63
2022-09-12T23:17:37.083Z,5.03
2022-09-12T23:20:41.093Z,6.75
2022-09-12T23:23:43.703Z,5.75
2022-09-12T23:26:46.273Z,8.80
2022-09-12T23:29:52.370Z,8.18
2022-09-12T23:32:55.080Z,5.97
2022-09-12T23:36:02.126Z,4.75
2022-09-12T23:39:04.980Z,4.35
2022-09-12T23:42:07.670Z,9.63
2022-09-12T23:45:11.095Z,7.85
2022-09-12T23:48:13.669Z,6.47
2022-09-12T23:51:18.735Z,6.93
2022-09-12T23:54:21.315Z,6.28
2022-09-12T23:57:23.872Z,6.72
